Time;durP1;ratioP1;P1;durP2;ratioP2;P2;SDS_P1;SDS_P2;PMS_P1;PMS_P2;Temp;Humidity;BMP_temperature;BMP_pressure;BME280_temperature;BME280_humidity;BME280_pressure;Samples;Min_cycle;Max_cycle;Signal;HPM_P1;HPM_P2
2023/06/19 04:30:31;;;;;;;;;14.00;11.00;;;;;30.15;43.21;100866.47;5067437;27;46417;-80
2023/06/19 04:32:59;;;;;;;;;16.25;11.25;;;;;30.10;42.66;100868.97;5045237;28;45364;-79
2023/06/19 04:35:25;;;;;;;;;11.50;10.75;;;;;30.05;42.63;100864.00;5056329;28;45248;-80
2023/06/19 04:37:51;;;;;;;;;16.50;13.00;;;;;29.93;43.11;100871.06;5056340;28;45554;-79
2023/06/19 04:40:16;;;;;;;;;13.25;13.00;;;;;29.89;43.55;100860.56;5055536;28;45382;-79
2023/06/19 04:42:42;;;;;;;;;13.50;12.50;;;;;29.97;43.11;100877.09;5056654;28;45895;-79
2023/06/19 04:45:09;;;;;;;;;13.25;13.25;;;;;30.06;43.08;100870.41;5056112;28;45579;-79
2023/06/19 04:47:34;;;;;;;;;15.00;14.00;;;;;30.08;43.23;100869.16;5055703;28;46084;-80
2023/06/19 04:50:00;;;;;;;;;13.50;12.50;;;;;30.02;42.70;100866.31;5055372;28;45468;-78
2023/06/19 04:52:26;;;;;;;;;13.00;11.75;;;;;29.94;43.31;100866.44;5056428;28;45726;-79
2023/06/19 04:54:51;;;;;;;;;17.75;15.25;;;;;29.95;43.04;100871.75;5055811;28;45387;-79
2023/06/19 04:57:16;;;;;;;;;18.25;15.75;;;;;30.06;42.58;100868.50;5056193;28;45985;-79
2023/06/19 04:59:43;;;;;;;;;15.25;12.50;;;;;30.08;42.96;100858.09;5055580;28;45456;-80
2023/06/19 05:02:09;;;;;;;;;14.25;11.50;;;;;30.27;42.65;100876.00;5056182;28;45909;-76
2023/06/19 05:04:35;;;;;;;;;15.50;14.50;;;;;30.18;42.90;100876.31;5055779;28;45505;-80
2023/06/19 05:07:01;;;;;;;;;16.25;13.75;;;;;30.23;42.51;100874.66;5044854;28;45495;-78
2023/06/19 05:09:27;;;;;;;;;10.50;10.00;;;;;30.37;42.56;100884.81;5035849;28;45438;-77
2023/06/19 05:11:52;;;;;;;;;15.00;12.75;;;;;30.26;42.88;100879.81;5036220;28;45355;-77
2023/06/19 05:14:17;;;;;;;;;16.75;13.75;;;;;30.31;42.78;100885.59;5036703;28;45237;-76
2023/06/19 05:16:43;;;;;;;;;14.50;14.50;;;;;30.28;42.12;100868.56;5036135;28;45359;-77
2023/06/19 05:19:08;;;;;;;;;12.50;12.50;;;;;30.32;42.68;100867.94;5021267;28;45415;-76
2023/06/19 05:21:35;;;;;;;;;14.50;13.25;;;;;30.40;42.57;100870.59;5047612;28;45166;-85
2023/06/19 05:24:01;;;;;;;;;19.50;15.50;;;;;30.36;42.66;100846.31;5038657;28;45496;-81
2023/06/19 05:26:26;;;;;;;;;17.50;15.50;;;;;30.40;42.86;100853.13;5035694;28;46158;-79
2023/06/19 05:28:52;;;;;;;;;19.75;14.25;;;;;30.35;42.39;100848.22;5017961;28;45446;-77
2023/06/19 05:31:18;;;;;;;;;16.00;14.00;;;;;30.44;42.23;100860.00;5017464;28;45883;-78
2023/06/19 05:33:43;;;;;;;;;12.00;12.00;;;;;30.58;42.30;100870.19;5034795;28;46639;-75
2023/06/19 05:36:09;;;;;;;;;12.50;12.00;;;;;30.58;42.66;100872.09;5055946;28;45399;-82
2023/06/19 05:38:34;;;;;;;;;13.25;12.75;;;;;30.50;41.75;100850.91;5055507;28;45334;-82
2023/06/19 05:41:01;;;;;;;;;18.25;15.25;;;;;30.50;42.10;100870.28;5056029;28;45200;-83
2023/06/19 05:43:27;;;;;;;;;12.25;11.00;;;;;30.58;41.78;100855.47;5056492;28;45535;-76
2023/06/19 05:45:54;;;;;;;;;19.50;12.75;;;;;30.48;42.67;100864.06;5054989;28;45914;-79
2023/06/19 05:48:19;;;;;;;;;13.75;11.75;;;;;30.54;42.13;100852.25;5036860;28;45889;-78
2023/06/19 05:50:45;;;;;;;;;16.00;16.00;;;;;30.56;42.14;100854.81;5055896;28;45489;-80
2023/06/19 05:53:10;;;;;;;;;15.25;13.75;;;;;30.74;42.12;100846.91;5047623;28;45534;-77
2023/06/19 05:55:35;;;;;;;;;16.25;14.00;;;;;30.79;41.74;100827.81;5054392;28;45368;-77
2023/06/19 05:58:03;;;;;;;;;19.25;15.00;;;;;30.95;42.04;100843.25;5052943;28;45514;-76
2023/06/19 06:00:29;;;;;;;;;11.00;10.75;;;;;31.05;42.05;100863.16;5036307;28;45426;-76
2023/06/19 06:02:56;;;;;;;;;13.00;12.50;;;;;31.11;41.68;100859.63;5055029;28;45740;-78
2023/06/19 06:05:21;;;;;;;;;15.75;14.75;;;;;31.11;41.49;100856.84;5036387;28;47668;-77
2023/06/19 06:07:46;;;;;;;;;13.75;12.75;;;;;31.16;41.81;100846.84;5050283;28;45473;-76
2023/06/19 06:10:12;;;;;;;;;15.00;13.50;;;;;31.22;41.47;100847.13;5055534;28;45406;-77
2023/06/19 06:12:37;;;;;;;;;12.25;12.25;;;;;31.16;41.63;100844.09;5054693;28;45535;-76
2023/06/19 06:15:04;;;;;;;;;17.75;15.50;;;;;31.17;40.99;100851.34;5036549;28;48002;-78
2023/06/19 06:17:30;;;;;;;;;9.75;9.75;;;;;31.22;41.17;100845.19;5054544;28;45399;-78
2023/06/19 06:19:56;;;;;;;;;18.00;16.50;;;;;31.32;40.77;100855.91;5054981;28;45421;-77
2023/06/19 06:22:21;;;;;;;;;19.50;17.50;;;;;31.33;40.71;100855.72;5054482;28;45339;-78
2023/06/19 06:24:46;;;;;;;;;20.50;17.00;;;;;31.43;40.92;100870.06;5054574;28;45450;-77
2023/06/19 06:27:13;;;;;;;;;12.00;12.00;;;;;31.46;40.92;100858.59;5054393;28;45339;-79
2023/06/19 06:29:38;;;;;;;;;17.25;15.25;;;;;31.52;40.41;100873.53;5054802;28;45316;-77
2023/06/19 06:32:05;;;;;;;;;16.25;13.75;;;;;31.43;40.25;100880.28;5034935;28;45414;-75
2023/06/19 06:34:32;;;;;;;;;17.00;15.00;;;;;31.36;40.42;100871.09;5027392;28;45235;-76
2023/06/19 06:36:58;;;;;;;;;16.75;14.25;;;;;31.36;40.39;100871.09;5015997;28;45283;-78
2023/06/19 06:39:23;;;;;;;;;15.75;14.75;;;;;31.40;40.85;100894.53;5014310;28;45304;-78
2023/06/19 06:41:48;;;;;;;;;17.25;16.50;;;;;31.29;41.15;100886.81;4996190;28;47573;-77
2023/06/19 06:44:14;;;;;;;;;14.75;13.75;;;;;31.32;41.41;100891.94;5014317;28;45466;-75
2023/06/19 06:46:39;;;;;;;;;18.25;16.25;;;;;31.33;40.85;100900.03;5013382;28;45544;-78
2023/06/19 06:49:04;;;;;;;;;19.50;15.25;;;;;31.32;41.57;100898.34;5014864;28;45368;-76
2023/06/19 06:51:29;;;;;;;;;20.50;15.75;;;;;31.23;41.59;100918.06;5014099;28;45336;-77
2023/06/19 06:53:55;;;;;;;;;16.50;15.00;;;;;31.23;41.44;100910.63;5013329;28;45888;-77
2023/06/19 06:56:20;;;;;;;;;18.00;15.00;;;;;31.31;41.54;100915.16;5013829;28;45314;-77
2023/06/19 06:58:46;;;;;;;;;19.75;16.25;;;;;31.38;41.74;100911.41;5029347;28;45351;-76
2023/06/19 07:01:12;;;;;;;;;15.25;14.00;;;;;31.42;41.17;100909.06;5016446;28;45455;-77
2023/06/19 07:03:37;;;;;;;;;17.25;15.75;;;;;31.63;41.50;100911.81;5013563;28;46441;-77
2023/06/19 07:06:03;;;;;;;;;14.50;14.00;;;;;31.62;40.98;100918.41;5030999;28;45350;-78
2023/06/19 07:08:28;;;;;;;;;16.75;16.75;;;;;31.72;41.11;100912.50;5005956;28;45388;-78
2023/06/19 07:10:53;;;;;;;;;21.00;19.00;;;;;31.75;40.95;100912.06;5013424;28;45407;-78
2023/06/19 07:13:19;;;;;;;;;22.25;21.25;;;;;31.75;40.58;100918.47;5016202;28;45312;-77
2023/06/19 07:15:44;;;;;;;;;20.50;18.25;;;;;31.66;40.94;100914.16;5015047;28;48238;-75
2023/06/19 07:18:10;;;;;;;;;15.50;15.50;;;;;31.73;40.87;100906.72;5017954;28;45249;-77
2023/06/19 07:20:35;;;;;;;;;20.25;16.75;;;;;31.82;40.60;100908.28;5022789;28;45469;-78
2023/06/19 07:23:01;;;;;;;;;21.25;20.75;;;;;31.87;40.47;100905.78;5027763;28;45507;-77
2023/06/19 07:25:26;;;;;;;;;15.00;13.50;;;;;31.95;40.48;100913.06;5031723;28;45371;-76
2023/06/19 07:27:52;;;;;;;;;20.00;18.50;;;;;31.81;39.88;100914.06;5018570;28;45527;-75
2023/06/19 07:30:17;;;;;;;;;19.75;17.00;;;;;31.67;40.45;100904.78;5033448;28;45285;-76
2023/06/19 07:32:43;;;;;;;;;20.00;15.75;;;;;31.58;40.46;100901.28;5034753;28;46198;-77
2023/06/19 07:35:09;;;;;;;;;22.00;22.00;;;;;31.71;40.26;100906.09;5055362;28;45340;-76
2023/06/19 07:37:34;;;;;;;;;16.25;15.75;;;;;31.68;40.78;100900.97;5057021;28;45519;-77
2023/06/19 07:39:59;;;;;;;;;19.75;17.00;;;;;31.59;40.40;100897.47;5047724;28;45493;-76
2023/06/19 07:42:25;;;;;;;;;21.75;20.50;;;;;31.65;40.58;100900.50;5056568;28;45875;-72
2023/06/19 07:44:51;;;;;;;;;25.00;19.75;;;;;31.64;40.70;100882.19;5053401;28;45512;-76
2023/06/19 07:47:18;;;;;;;;;21.75;16.00;;;;;31.71;40.70;100896.94;5036357;28;45320;-77
2023/06/19 07:49:43;;;;;;;;;19.00;18.00;;;;;31.78;40.29;100895.03;5044625;28;46231;-76
2023/06/19 07:52:09;;;;;;;;;18.50;16.00;;;;;31.91;40.31;100895.97;5046305;28;46151;-78
2023/06/19 07:54:35;;;;;;;;;19.00;17.75;;;;;31.93;39.96;100906.84;5044360;28;45550;-81
2023/06/19 07:57:00;;;;;;;;;20.50;19.50;;;;;32.02;39.92;100908.41;5052462;28;45295;-78
2023/06/19 07:59:26;;;;;;;;;20.00;19.75;;;;;31.93;40.27;100906.84;5039908;28;45480;-76
2023/06/19 08:01:51;;;;;;;;;19.25;19.25;;;;;31.87;40.11;100913.22;5026437;28;46904;-78
2023/06/19 08:04:17;;;;;;;;;23.25;21.50;;;;;31.97;39.99;100899.84;5037820;28;45323;-77
2023/06/19 08:06:42;;;;;;;;;22.00;19.25;;;;;31.95;40.04;100911.13;5056501;28;45342;-78
2023/06/19 08:09:08;;;;;;;;;20.50;18.50;;;;;31.93;40.27;100896.63;5040439;28;46031;-78
2023/06/19 08:11:33;;;;;;;;;20.00;19.75;;;;;32.02;39.70;100894.53;5047571;28;46030;-78
2023/06/19 08:13:59;;;;;;;;;23.25;23.25;;;;;32.01;39.69;100891.94;5041035;28;45563;-81
2023/06/19 08:16:25;;;;;;;;;25.75;23.25;;;;;32.01;39.87;100897.50;5037770;28;45524;-78
2023/06/19 08:18:51;;;;;;;;;18.50;17.25;;;;;32.04;39.77;100903.50;5039797;28;45469;-79
2023/06/19 08:21:16;;;;;;;;;26.75;21.00;;;;;32.09;39.88;100897.31;5036330;28;45445;-78
2023/06/19 08:23:43;;;;;;;;;26.25;22.25;;;;;32.18;39.44;100904.44;5035135;28;45399;-77
2023/06/19 08:26:09;;;;;;;;;23.00;21.50;;;;;32.13;39.61;100896.72;5036295;28;45398;-81
2023/06/19 08:28:34;;;;;;;;;23.75;21.75;;;;;31.92;39.47;100892.13;5035126;28;45447;-78
2023/06/19 08:31:00;;;;;;;;;20.75;20.50;;;;;31.98;39.90;100903.47;5040848;28;45664;-79
2023/06/19 08:33:25;;;;;;;;;21.50;18.75;;;;;32.01;39.44;100890.03;5054958;28;45536;-76
2023/06/19 08:35:51;;;;;;;;;15.25;14.75;;;;;32.22;39.06;100900.19;5055776;28;45394;-78
2023/06/19 08:38:16;;;;;;;;;15.50;15.50;;;;;32.35;38.61;100903.00;5055705;28;45163;-77
2023/06/19 08:40:43;;;;;;;;;15.50;14.50;;;;;32.42;37.96;100901.09;5055764;28;48943;-78
2023/06/19 08:43:08;;;;;;;;;15.50;12.50;;;;;32.54;38.29;100904.13;5055056;28;45295;-79
2023/06/19 08:45:34;;;;;;;;;15.50;15.50;;;;;32.69;38.20;100918.72;5055647;28;45229;-80
2023/06/19 08:48:08;;;;;;;;;17.25;14.00;;;;;32.71;38.28;100899.94;5055580;28;45355;-78
2023/06/19 08:50:33;;;;;;;;;15.00;14.00;;;;;32.79;37.65;100913.59;5056007;28;46275;-78
2023/06/19 08:52:59;;;;;;;;;16.25;12.75;;;;;32.84;38.10;100899.06;5055469;28;45340;-79
2023/06/19 08:55:25;;;;;;;;;16.00;12.50;;;;;32.94;37.50;100911.47;5055918;28;45641;-77
2023/06/19 08:57:52;;;;;;;;;15.00;13.00;;;;;32.97;36.79;100902.75;5055288;28;45530;-79
2023/06/19 09:00:28;;;;;;;;;15.00;12.25;;;;;33.01;36.99;100895.66;5055863;28;45595;-80
2023/06/19 09:03:03;;;;;;;;;12.00;11.25;;;;;32.94;35.47;100894.81;5055536;28;45322;-78
2023/06/19 09:05:28;;;;;;;;;10.50;10.00;;;;;32.77;36.59;100889.88;5037094;28;45528;-78
2023/06/19 09:08:00;;;;;;;;;9.00;8.75;;;;;32.94;36.05;100893.97;5055182;28;45573;-78
2023/06/19 09:10:26;;;;;;;;;7.25;6.75;;;;;32.69;36.22;100890.94;5055279;28;45458;-78
2023/06/19 09:13:04;;;;;;;;;8.25;6.75;;;;;32.85;36.62;100881.34;5055370;28;45416;-79
2023/06/19 09:15:32;;;;;;;;;11.00;8.75;;;;;33.01;35.96;100889.25;5034608;28;45383;-79
2023/06/19 09:18:06;;;;;;;;;13.00;9.25;;;;;33.06;35.93;100883.94;5055648;28;45399;-81
2023/06/19 09:20:34;;;;;;;;;8.75;8.50;;;;;33.17;36.01;100886.06;5055007;28;45436;-78
2023/06/19 09:22:59;;;;;;;;;10.00;7.75;;;;;33.21;35.77;100883.72;5055215;28;45280;-79
2023/06/19 09:25:26;;;;;;;;;8.00;8.00;;;;;33.25;35.18;100890.59;5055377;28;45271;-78
2023/06/19 09:27:53;;;;;;;;;8.25;8.25;;;;;33.21;35.90;100887.38;5055483;28;45328;-79
2023/06/19 09:30:19;;;;;;;;;6.75;6.75;;;;;33.28;35.44;100873.47;5054910;28;45699;-80
2023/06/19 09:32:44;;;;;;;;;6.75;6.00;;;;;33.46;35.53;100883.91;5042865;28;45520;-78
2023/06/19 09:35:09;;;;;;;;;7.50;5.75;;;;;33.59;35.20;100868.09;5054928;28;45311;-80
2023/06/19 09:37:37;;;;;;;;;7.25;7.25;;;;;33.57;34.60;100884.13;5055505;28;45343;-79
2023/06/19 09:40:10;;;;;;;;;10.25;10.25;;;;;33.33;34.70;100885.66;5054660;28;46416;-76
2023/06/19 09:42:42;;;;;;;;;8.00;8.00;;;;;33.24;34.45;100884.19;5054894;28;45404;-78
2023/06/19 09:45:09;;;;;;;;;6.00;6.00;;;;;33.29;35.27;100870.47;5054864;28;45549;-79
2023/06/19 09:47:45;;;;;;;;;7.00;5.00;;;;;33.53;34.49;100859.75;5055036;28;45308;-80
2023/06/19 09:50:15;;;;;;;;;6.75;6.75;;;;;33.62;34.07;100866.78;5054648;28;45319;-79
2023/06/19 09:52:42;;;;;;;;;5.75;5.50;;;;;33.38;33.25;100876.66;5036255;28;46714;-78
2023/06/19 09:55:10;;;;;;;;;5.00;5.00;;;;;33.77;33.85;100867.44;5054469;28;45344;-78
2023/06/19 09:57:38;;;;;;;;;6.75;6.75;;;;;33.88;33.87;100863.94;5055027;28;45403;-80
2023/06/19 10:00:12;;;;;;;;;7.75;7.00;;;;;33.93;32.68;100857.75;5054488;28;45327;-78
2023/06/19 10:02:40;;;;;;;;;8.50;5.50;;;;;33.94;33.11;100857.50;5054398;28;45336;-80
2023/06/19 10:05:10;;;;;;;;;9.00;6.00;;;;;34.17;33.61;100857.84;5054602;28;45458;-79
2023/06/19 10:07:35;;;;;;;;;9.75;8.00;;;;;34.42;33.44;100854.28;5036143;28;46257;-77
2023/06/19 10:10:06;;;;;;;;;8.50;8.50;;;;;34.65;32.91;100856.50;5054545;28;45375;-78
2023/06/19 10:12:46;;;;;;;;;7.50;7.00;;;;;34.83;32.42;100853.81;5054999;28;45442;-77
2023/06/19 10:15:18;;;;;;;;;9.75;9.75;;;;;35.11;32.44;100862.59;5055026;28;45286;-79
2023/06/19 10:18:01;;;;;;;;;9.50;8.50;;;;;35.14;31.18;100862.09;5054057;28;45590;-75
2023/06/19 10:20:37;;;;;;;;;8.25;7.75;;;;;35.34;31.46;100856.38;5054030;28;45508;-77
2023/06/19 10:23:07;;;;;;;;;9.00;8.00;;;;;35.02;31.23;100854.72;5035816;28;45484;-80
2023/06/19 10:25:42;;;;;;;;;10.75;10.25;;;;;35.20;31.99;100852.84;5054351;28;45479;-78
2023/06/19 10:28:18;;;;;;;;;10.75;8.50;;;;;35.46;31.81;100854.56;5054812;28;45373;-76
2023/06/19 10:30:43;;;;;;;;;9.25;8.00;;;;;35.60;31.73;100828.22;5035851;28;47216;-73
2023/06/19 10:33:08;;;;;;;;;9.00;7.25;;;;;35.87;31.31;100825.13;5054070;28;45380;-74
2023/06/19 10:35:41;;;;;;;;;11.75;6.50;;;;;35.92;31.13;100834.50;5026723;28;45424;-75
2023/06/19 10:38:10;;;;;;;;;9.50;8.50;;;;;35.92;30.69;100828.06;5036246;28;45399;-77
2023/06/19 10:40:37;;;;;;;;;6.00;6.00;;;;;35.94;31.02;100826.75;5054136;28;47121;-75
2023/06/19 10:43:04;;;;;;;;;10.00;8.25;;;;;36.21;30.44;100827.28;5054069;28;45382;-76
2023/06/19 10:45:29;;;;;;;;;10.25;8.75;;;;;36.22;30.08;100833.72;5054233;28;45360;-73
2023/06/19 10:47:56;;;;;;;;;10.00;9.50;;;;;36.10;30.12;100835.56;5053429;28;45478;-76
2023/06/19 10:50:22;;;;;;;;;9.75;7.50;;;;;35.94;30.31;100831.47;5054310;28;46368;-76
2023/06/19 10:52:52;;;;;;;;;8.75;8.75;;;;;36.19;30.48;100835.03;5053928;28;45366;-78
2023/06/19 10:55:17;;;;;;;;;5.00;5.00;;;;;36.10;29.86;100829.97;5054422;28;45501;-75
2023/06/19 10:57:46;;;;;;;;;6.00;5.25;;;;;36.23;30.21;100841.00;5053763;28;45372;-76
2023/06/19 11:00:12;;;;;;;;;9.00;6.50;;;;;36.28;30.48;100832.75;5053510;28;46131;-74
2023/06/19 11:02:40;;;;;;;;;12.75;8.25;;;;;36.48;29.62;100832.47;5053610;28;45296;-74
2023/06/19 11:05:06;;;;;;;;;10.00;10.00;;;;;36.42;29.85;100823.09;5053841;28;45531;-73
2023/06/19 11:07:32;;;;;;;;;8.75;8.00;;;;;36.60;30.03;100825.81;5035448;28;46273;-73
2023/06/19 11:09:57;;;;;;;;;9.75;9.75;;;;;36.49;29.78;100815.47;5054009;28;45443;-74
2023/06/19 11:12:23;;;;;;;;;9.00;7.75;;;;;36.44;29.35;100820.91;5053955;28;45461;-74
2023/06/19 11:14:49;;;;;;;;;9.50;8.00;;;;;36.52;29.41;100814.97;5033123;28;45433;-76
2023/06/19 11:17:15;;;;;;;;;7.75;7.25;;;;;36.62;29.59;100811.59;5053974;28;45474;-73
2023/06/19 11:19:43;;;;;;;;;11.25;10.50;;;;;36.45;29.01;100805.84;5052985;28;46186;-73
2023/06/19 11:22:09;;;;;;;;;12.25;8.25;;;;;36.35;28.73;100809.22;5053537;28;45339;-72
2023/06/19 11:24:34;;;;;;;;;9.75;8.75;;;;;36.40;29.07;100814.13;5054225;28;45332;-77
2023/06/19 11:26:59;;;;;;;;;10.00;10.00;;;;;36.37;29.19;100815.44;5053597;28;45342;-74
2023/06/19 11:29:29;;;;;;;;;9.25;7.50;;;;;36.56;29.21;100812.56;5053250;28;47190;-74
2023/06/19 11:32:08;;;;;;;;;8.25;7.25;;;;;36.66;29.23;100819.28;5053631;28;45404;-74
2023/06/19 11:34:36;;;;;;;;;5.75;5.00;;;;;36.57;28.67;100806.75;5053658;28;45262;-74
2023/06/19 11:37:22;;;;;;;;;9.00;8.50;;;;;36.70;29.07;100805.69;5053131;28;45523;-73
2023/06/19 11:39:49;;;;;;;;;5.00;5.00;;;;;36.74;28.96;100804.16;5052536;28;45998;-74
2023/06/19 11:42:17;;;;;;;;;9.50;9.50;;;;;36.64;29.11;100803.84;5053270;28;45522;-73
2023/06/19 11:44:56;;;;;;;;;11.50;7.75;;;;;36.54;28.72;100804.44;5052943;28;45436;-73
2023/06/19 11:47:21;;;;;;;;;9.50;9.50;;;;;36.29;29.00;100801.81;5053352;28;45764;-73
2023/06/19 11:49:49;;;;;;;;;11.00;9.00;;;;;36.30;29.28;100800.72;5034681;28;45432;-72
2023/06/19 11:52:14;;;;;;;;;10.75;9.50;;;;;36.30;29.82;100791.50;5053411;28;45422;-71
2023/06/19 11:54:40;;;;;;;;;11.25;9.50;;;;;36.41;29.43;100796.25;5053163;28;45283;-72
2023/06/19 11:57:05;;;;;;;;;10.50;10.50;;;;;36.56;29.28;100805.06;5052996;28;47546;-74
2023/06/19 11:59:31;;;;;;;;;9.00;9.00;;;;;36.58;29.62;100797.25;5054011;28;45448;-73
2023/06/19 12:01:58;;;;;;;;;9.75;8.75;;;;;36.57;29.36;100791.94;5056881;28;45516;-73
2023/06/19 12:04:24;;;;;;;;;8.25;8.00;;;;;36.58;29.20;100796.44;5056262;28;45378;-79
2023/06/19 12:06:49;;;;;;;;;14.25;10.50;;;;;36.51;29.61;100793.72;5061870;28;45253;-77
2023/06/19 12:09:15;;;;;;;;;10.00;7.75;;;;;36.36;29.40;100796.13;5059081;28;46438;-79
2023/06/19 12:11:40;;;;;;;;;8.50;5.25;;;;;36.25;30.11;100788.53;5058224;28;45284;-78
2023/06/19 12:14:05;;;;;;;;;9.25;7.75;;;;;36.23;30.10;100786.03;5056300;28;45513;-79
2023/06/19 12:16:31;;;;;;;;;9.75;8.25;;;;;36.16;29.98;100779.63;5056306;28;45474;-79
2023/06/19 12:18:56;;;;;;;;;12.25;8.00;;;;;35.93;29.96;100782.31;5056229;28;46216;-80
2023/06/19 12:21:21;;;;;;;;;8.25;8.25;;;;;35.60;30.36;100780.78;5056000;28;45424;-78
2023/06/19 12:23:48;;;;;;;;;8.75;8.25;;;;;35.55;30.34;100777.88;5056398;28;45589;-79
2023/06/19 12:26:13;;;;;;;;;13.50;10.50;;;;;35.55;30.72;100779.81;5056373;28;45553;-79
2023/06/19 12:28:38;;;;;;;;;9.75;7.25;;;;;35.47;30.77;100775.41;5042122;28;46540;-79
2023/06/19 12:31:04;;;;;;;;;10.75;9.00;;;;;35.43;30.77;100784.44;5056213;28;45378;-79
2023/06/19 12:33:32;;;;;;;;;9.00;9.00;;;;;35.41;30.97;100783.81;5056150;28;46074;-80
2023/06/19 12:35:58;;;;;;;;;9.50;9.00;;;;;35.47;31.10;100788.47;5055724;28;45362;-81
2023/06/19 12:38:23;;;;;;;;;8.00;7.50;;;;;35.47;31.05;100780.97;5055802;28;46146;-77
2023/06/19 12:40:49;;;;;;;;;12.25;9.25;;;;;35.22;30.99;100792.13;5058059;28;45339;-79
2023/06/19 12:43:14;;;;;;;;;9.50;9.50;;;;;35.18;31.26;100782.53;5057732;28;46743;-80
2023/06/19 12:45:41;;;;;;;;;10.25;9.00;;;;;35.16;31.32;100767.13;5059709;28;45576;-80
2023/06/19 12:48:06;;;;;;;;;10.50;9.25;;;;;35.19;31.11;100763.88;5056847;28;46115;-78
2023/06/19 12:50:31;;;;;;;;;7.50;7.50;;;;;35.32;31.37;100768.47;5057793;28;45280;-80
2023/06/19 12:52:57;;;;;;;;;10.75;8.75;;;;;35.31;31.21;100766.75;5057218;28;45942;-80
2023/06/19 12:55:22;;;;;;;;;11.00;10.75;;;;;35.28;31.58;100757.81;5056575;28;45626;-78
2023/06/19 12:57:47;;;;;;;;;10.25;10.25;;;;;35.40;31.08;100749.50;5056124;28;45544;-76
2023/06/19 13:00:13;;;;;;;;;11.00;11.00;;;;;35.54;31.57;100758.56;5056066;28;45495;-81
2023/06/19 13:02:39;;;;;;;;;26.25;20.75;;;;;35.59;31.73;100754.00;5056063;28;45467;-77
2023/06/19 13:05:06;;;;;;;;;10.50;8.75;;;;;35.63;31.43;100743.22;5037702;28;45741;-81
2023/06/19 13:07:31;;;;;;;;;11.25;9.50;;;;;35.59;31.46;100728.03;5056114;28;45528;-78
2023/06/19 13:09:56;;;;;;;;;13.00;10.50;;;;;35.54;32.05;100745.47;5055566;28;45227;-80
2023/06/19 13:12:22;;;;;;;;;11.25;9.25;;;;;35.50;32.57;100746.16;5056119;28;45331;-79
2023/06/19 13:14:47;;;;;;;;;10.50;10.25;;;;;35.31;32.66;100739.75;5056077;28;45566;-78
2023/06/19 13:17:14;;;;;;;;;7.75;7.75;;;;;35.22;33.16;100738.31;5056045;28;46554;-78
2023/06/19 13:19:39;;;;;;;;;9.50;9.50;;;;;35.23;32.67;100737.25;5055587;28;45374;-78
2023/06/19 13:22:04;;;;;;;;;8.50;8.50;;;;;35.24;32.51;100734.25;5055751;28;45359;-80
2023/06/19 13:24:30;;;;;;;;;9.75;7.75;;;;;35.19;32.77;100748.00;5056128;28;45609;-77
2023/06/19 13:26:55;;;;;;;;;11.50;10.50;;;;;35.22;33.41;100738.31;5055517;28;50984;-78
2023/06/19 13:29:21;;;;;;;;;9.50;9.50;;;;;35.24;32.59;100737.03;5055834;28;45339;-78
2023/06/19 13:31:46;;;;;;;;;12.25;10.25;;;;;35.36;33.20;100739.06;5055465;28;45401;-79
2023/06/19 13:34:13;;;;;;;;;9.75;9.75;;;;;35.43;33.07;100748.19;5055790;28;45517;-78
2023/06/19 13:36:39;;;;;;;;;9.00;7.00;;;;;35.15;32.44;100732.81;5055495;28;45482;-79
2023/06/19 13:39:05;;;;;;;;;9.25;8.50;;;;;35.12;32.88;100740.81;5037279;28;45474;-81
2023/06/19 13:41:32;;;;;;;;;10.25;8.75;;;;;35.24;33.08;100750.97;5055421;28;45335;-78
2023/06/19 13:43:58;;;;;;;;;10.25;10.25;;;;;35.22;33.19;100733.59;5055616;28;45496;-79
2023/06/19 13:46:23;;;;;;;;;11.50;9.50;;;;;35.24;32.98;100741.75;5055454;28;45479;-77
2023/06/19 13:48:51;;;;;;;;;9.50;7.50;;;;;35.27;33.46;100735.72;5055910;28;45430;-79
2023/06/19 13:51:17;;;;;;;;;6.25;6.25;;;;;35.24;33.23;100722.25;5038391;28;45492;-78
2023/06/19 13:53:44;;;;;;;;;11.75;9.00;;;;;35.21;33.41;100719.91;5055516;28;45564;-80
2023/06/19 13:56:09;;;;;;;;;10.50;7.75;;;;;35.24;33.45;100725.03;5055569;28;45424;-79
2023/06/19 13:58:35;;;;;;;;;8.00;8.00;;;;;35.22;33.34;100732.72;5054827;28;45469;-80
2023/06/19 14:01:00;;;;;;;;;7.75;7.75;;;;;35.01;33.58;100719.28;5055504;28;45461;-80
2023/06/19 14:03:25;;;;;;;;;10.00;10.00;;;;;35.07;33.68;100730.34;5055576;28;45599;-79
2023/06/19 14:05:51;;;;;;;;;9.75;9.00;;;;;34.98;33.60;100723.34;5054574;28;46279;-80
2023/06/19 14:08:16;;;;;;;;;9.25;8.00;;;;;34.85;34.00;100717.94;5055432;28;45274;-79
2023/06/19 14:10:41;;;;;;;;;9.75;7.50;;;;;34.89;34.01;100727.53;5037177;28;45335;-78
2023/06/19 14:13:07;;;;;;;;;12.00;10.00;;;;;34.71;33.88;100708.81;5055049;28;45645;-79
2023/06/19 14:15:32;;;;;;;;;12.25;8.25;;;;;34.59;34.24;100702.31;5054812;28;46320;-81
2023/06/19 14:17:57;;;;;;;;;10.00;8.75;;;;;34.68;34.47;100722.38;5055316;28;45351;-79
2023/06/19 14:20:23;;;;;;;;;9.50;8.75;;;;;34.74;34.27;100708.41;5054778;28;45475;-80
2023/06/19 14:22:48;;;;;;;;;10.00;8.00;;;;;34.72;34.84;100720.81;5053574;28;45428;-80
2023/06/19 14:25:13;;;;;;;;;9.00;7.00;;;;;34.54;35.02;100722.47;5054836;28;45469;-81
2023/06/19 14:27:39;;;;;;;;;10.25;9.75;;;;;34.51;34.95;100713.72;5054902;28;45434;-79
2023/06/19 14:30:05;;;;;;;;;10.25;9.75;;;;;34.49;35.22;100719.53;5054458;28;45290;-83
2023/06/19 14:32:30;;;;;;;;;9.75;8.75;;;;;34.71;34.65;100719.94;5032648;28;46216;-81
2023/06/19 14:34:55;;;;;;;;;9.00;9.00;;;;;34.76;34.60;100722.97;5036261;28;45960;-79
2023/06/19 14:37:21;;;;;;;;;9.00;8.00;;;;;34.91;34.89;100720.66;5054618;28;48809;-80
2023/06/19 14:39:46;;;;;;;;;10.25;9.25;;;;;34.90;34.29;100718.94;5054550;28;45451;-80
2023/06/19 14:42:12;;;;;;;;;8.75;8.75;;;;;34.98;34.35;100728.06;5054943;28;45375;-81
2023/06/19 14:44:37;;;;;;;;;9.00;9.00;;;;;34.99;34.65;100729.78;5054507;28;45700;-80
2023/06/19 14:47:03;;;;;;;;;7.75;7.75;;;;;34.92;34.62;100722.34;5054913;28;45345;-80
2023/06/19 14:49:29;;;;;;;;;10.50;9.25;;;;;34.84;34.33;100716.22;5054704;28;45302;-80
2023/06/19 14:51:56;;;;;;;;;10.00;9.00;;;;;34.73;34.26;100717.84;5054435;28;45371;-82
2023/06/19 14:54:22;;;;;;;;;9.25;8.75;;;;;34.74;34.68;100705.63;5054204;28;46274;-81
2023/06/19 14:56:49;;;;;;;;;9.25;8.50;;;;;34.76;34.57;100700.66;5054131;28;45347;-80
2023/06/19 14:59:15;;;;;;;;;11.25;9.50;;;;;34.72;34.68;100699.38;5053591;28;45339;-79
2023/06/19 15:01:41;;;;;;;;;11.00;8.75;;;;;34.65;35.02;100706.09;5054401;28;45166;-77
2023/06/19 15:04:06;;;;;;;;;11.25;9.75;;;;;34.51;34.89;100699.81;5037222;28;46871;-77
2023/06/19 15:06:32;;;;;;;;;11.50;10.50;;;;;34.60;34.98;100698.44;5054723;28;45477;-76
2023/06/19 15:08:58;;;;;;;;;10.50;9.00;;;;;34.66;35.12;100703.09;5054559;28;45395;-76
2023/06/19 15:11:23;;;;;;;;;10.25;9.50;;;;;34.72;34.70;100693.81;5053422;28;45565;-79
2023/06/19 15:13:48;;;;;;;;;7.75;7.75;;;;;34.82;34.55;100687.75;5046508;28;45497;-79
2023/06/19 15:16:14;;;;;;;;;10.25;10.25;;;;;34.93;34.13;100689.78;5049261;28;45738;-80
2023/06/19 15:18:41;;;;;;;;;9.75;8.00;;;;;34.91;34.71;100684.44;5047683;28;45498;-79
2023/06/19 15:21:07;;;;;;;;;11.50;10.50;;;;;34.92;34.49;100686.13;5033018;28;45569;-78
2023/06/19 15:23:33;;;;;;;;;11.00;9.00;;;;;35.08;34.47;100694.97;5050601;28;46372;-73
2023/06/19 15:25:58;;;;;;;;;11.50;11.50;;;;;35.12;34.11;100697.06;5035209;28;45253;-69
2023/06/19 15:28:25;;;;;;;;;13.00;9.75;;;;;35.18;34.70;100695.28;5046396;28;45304;-70
2023/06/19 15:30:50;;;;;;;;;12.50;10.50;;;;;35.24;34.77;100695.22;5033620;28;46232;-72
2023/06/19 15:33:16;;;;;;;;;14.50;12.50;;;;;35.24;35.26;100688.78;5045770;28;55399;-72
2023/06/19 15:35:41;;;;;;;;;11.75;10.75;;;;;35.31;34.60;100680.34;5054686;28;45539;-73
2023/06/19 15:38:07;;;;;;;;;14.00;10.00;;;;;35.32;34.82;100682.91;5044034;28;45511;-72
2023/06/19 15:40:32;;;;;;;;;13.00;11.50;;;;;35.33;34.79;100670.66;5050945;28;45395;-72
2023/06/19 15:42:58;;;;;;;;;9.75;9.75;;;;;35.33;34.61;100669.81;5036921;28;46112;-74